Terminal Aerodrome Forecast
Issued by NWS Louisville, KY

Home | Current Version | Previous Version | Text Only | Print | Product List | Glossary On
Versions: 1 2 3 4 5 6 7 8 9 10 11 12 13 14
000
FTUS43 KLMK 251700
TAFBWG
TAF
KBWG 251720Z 2518/2618 21011G17KT P6SM BKN040
     FM252300 17006KT P6SM BKN040
     FM260700 20010KT 4SM SHRA BR VCTS BKN030CB
     FM261200 27012KT 4SM -SHRA BR BKN008=

USA.gov is the U.S. government's official web portal to all federal, state and local government web resources and services.